Time;durP1;ratioP1;P1;durP2;ratioP2;P2;SDS_P1;SDS_P2;PMS_P1;PMS_P2;Temp;Humidity;BMP_temperature;BMP_pressure;BME280_temperature;BME280_humidity;BME280_pressure;Samples;Min_cycle;Max_cycle;Signal;HPM_P1;HPM_P2
2022/06/25 00:01:30;;;;;;;0.82;0.82;;;22.10;62.30;;;;;;4914672;29;20051;-51
2022/06/25 00:03:56;;;;;;;1.17;1.05;;;22.00;61.30;;;;;;4911190;29;20083;-48
2022/06/25 00:06:24;;;;;;;1.67;1.17;;;22.00;61.40;;;;;;4914508;29;20412;-49
2022/06/25 00:08:53;;;;;;;1.48;1.10;;;22.00;61.60;;;;;;4914871;29;20107;-48
2022/06/25 00:14:11;;;;;;;1.88;1.10;;;22.00;61.60;;;;;;4907397;29;20086;-50
2022/06/25 00:16:40;;;;;;;1.48;1.20;;;22.00;61.80;;;;;;4914204;29;20080;-51
2022/06/25 00:19:07;;;;;;;1.02;1.02;;;21.90;61.50;;;;;;4914976;29;20044;-50
2022/06/25 00:21:38;;;;;;;2.42;1.13;;;21.90;61.70;;;;;;4914352;29;20055;-48
2022/06/25 00:24:05;;;;;;;2.22;1.48;;;21.90;62.30;;;;;;4909718;29;20158;-51
2022/06/25 00:26:32;;;;;;;2.95;1.00;;;21.90;61.80;;;;;;4913491;29;20717;-49
2022/06/25 00:29:07;;;;;;;0.95;0.90;;;21.90;61.80;;;;;;4908821;29;20056;-47
2022/06/25 00:31:34;;;;;;;1.13;1.02;;;21.90;61.80;;;;;;4913028;29;20067;-50
2022/06/25 00:34:03;;;;;;;1.92;0.90;;;21.90;61.80;;;;;;4911598;29;20040;-47
2022/06/25 00:36:31;;;;;;;1.10;1.05;;;21.80;61.80;;;;;;4914068;29;20503;-49
2022/06/25 00:39:00;;;;;;;1.40;1.05;;;21.80;61.80;;;;;;4914049;29;20431;-52
2022/06/25 00:41:29;;;;;;;1.00;0.90;;;21.90;62.00;;;;;;4899864;29;20064;-48
2022/06/25 00:43:56;;;;;;;1.38;1.05;;;21.80;62.00;;;;;;4914456;29;20632;-48
2022/06/25 00:46:24;;;;;;;1.92;1.13;;;21.80;62.00;;;;;;4911586;29;20046;-50
2022/06/25 00:48:54;;;;;;;1.35;1.20;;;21.80;62.00;;;;;;4911797;29;20460;-51
2022/06/25 00:51:23;;;;;;;1.45;0.95;;;21.80;62.00;;;;;;4896993;29;20084;-48
2022/06/25 00:53:56;;;;;;;2.03;1.17;;;21.80;62.20;;;;;;4908627;29;20075;-48
2022/06/25 00:56:27;;;;;;;1.20;1.10;;;21.70;62.10;;;;;;4912759;29;20095;-48
2022/06/25 00:59:02;;;;;;;1.98;1.20;;;21.70;62.20;;;;;;4905670;29;20052;-48
2022/06/25 01:01:33;;;;;;;1.92;0.95;;;21.70;62.30;;;;;;4912621;29;20048;-47
2022/06/25 01:04:00;;;;;;;2.13;1.75;;;21.70;63.00;;;;;;4908047;29;20119;-48
2022/06/25 01:06:28;;;;;;;1.95;0.95;;;21.70;62.20;;;;;;4912910;29;20052;-49
2022/06/25 01:08:57;;;;;;;2.55;1.30;;;21.70;62.30;;;;;;4909713;29;20059;-48
2022/06/25 01:11:31;;;;;;;2.22;1.30;;;21.70;62.30;;;;;;4914163;29;20454;-48
2022/06/25 01:14:06;;;;;;;1.83;1.13;;;21.70;62.50;;;;;;4917914;29;20067;-48
2022/06/25 01:16:35;;;;;;;0.95;0.95;;;21.70;62.60;;;;;;4917408;29;20535;-52
2022/06/25 01:19:07;;;;;;;1.05;1.02;;;21.60;62.30;;;;;;4914414;29;20128;-52
2022/06/25 01:21:36;;;;;;;1.27;1.08;;;21.60;62.30;;;;;;4916888;29;20032;-47
2022/06/25 01:24:08;;;;;;;3.75;1.35;;;21.60;62.40;;;;;;4917405;29;20127;-49
2022/06/25 01:26:41;;;;;;;0.85;0.80;;;21.60;62.60;;;;;;4917250;29;20086;-52
2022/06/25 01:29:09;;;;;;;1.67;0.98;;;21.60;62.40;;;;;;4911908;29;20091;-48
2022/06/25 01:31:36;;;;;;;1.00;1.00;;;21.60;62.50;;;;;;4917107;29;20044;-50
2022/06/25 01:34:04;;;;;;;1.10;1.00;;;21.60;62.60;;;;;;4917616;29;20050;-48
2022/06/25 01:36:31;;;;;;;1.42;1.13;;;21.50;62.50;;;;;;4917654;29;20099;-52
2022/06/25 01:39:01;;;;;;;1.13;1.13;;;21.50;62.60;;;;;;4912122;29;20052;-52
2022/06/25 01:41:29;;;;;;;2.83;1.17;;;21.40;62.60;;;;;;4916393;29;20072;-50
2022/06/25 01:43:56;;;;;;;1.25;1.15;;;21.50;62.70;;;;;;4917530;29;20056;-48
2022/06/25 01:46:30;;;;;;;0.73;0.70;;;21.40;62.70;;;;;;4916517;29;20107;-52
2022/06/25 01:49:02;;;;;;;2.88;1.65;;;21.40;62.80;;;;;;4914547;29;20048;-47
2022/06/25 01:51:31;;;;;;;1.83;1.40;;;21.40;63.10;;;;;;4922246;29;20052;-49
2022/06/25 01:54:01;;;;;;;1.05;1.05;;;21.40;63.00;;;;;;4917031;29;20048;-49
2022/06/25 01:56:27;;;;;;;1.20;1.10;;;21.30;62.90;;;;;;4898255;29;20047;-51
2022/06/25 01:58:54;;;;;;;3.05;2.05;;;21.30;62.90;;;;;;4911491;29;20048;-52
2022/06/25 02:01:23;;;;;;;1.58;1.25;;;21.20;63.00;;;;;;4915370;29;20104;-48
2022/06/25 02:03:50;;;;;;;2.33;1.23;;;21.20;63.20;;;;;;4914519;29;20407;-49
2022/06/25 02:06:19;;;;;;;1.13;1.00;;;21.20;63.30;;;;;;4908157;29;20706;-51
2022/06/25 02:08:48;;;;;;;3.75;1.33;;;21.20;63.40;;;;;;4916849;29;20044;-52
2022/06/25 02:11:16;;;;;;;2.30;1.15;;;21.10;63.40;;;;;;4916550;29;20087;-47
2022/06/25 02:13:46;;;;;;;1.00;1.00;;;21.20;63.60;;;;;;4917147;29;20480;-49
2022/06/25 02:16:20;;;;;;;1.88;1.20;;;21.10;63.50;;;;;;4910277;29;20044;-48
2022/06/25 02:18:52;;;;;;;1.48;1.27;;;21.10;63.50;;;;;;4915480;29;20131;-52
2022/06/25 02:21:19;;;;;;;1.67;1.30;;;21.10;63.70;;;;;;4915663;29;20110;-51
2022/06/25 02:23:49;;;;;;;2.33;1.33;;;21.10;63.70;;;;;;4899061;29;20040;-48
2022/06/25 02:26:16;;;;;;;2.42;1.20;;;21.00;63.60;;;;;;4912991;29;20076;-48
2022/06/25 02:28:43;;;;;;;1.83;1.08;;;21.00;63.60;;;;;;4916623;29;20055;-48
2022/06/25 02:31:12;;;;;;;1.90;1.23;;;21.00;63.70;;;;;;4916076;29;20048;-48
2022/06/25 02:33:41;;;;;;;2.25;1.25;;;21.00;63.70;;;;;;4914689;29;20452;-48
2022/06/25 02:36:08;;;;;;;1.25;1.00;;;20.90;63.70;;;;;;4901184;29;20126;-48
2022/06/25 02:38:35;;;;;;;3.20;1.50;;;20.90;63.60;;;;;;4916257;29;20051;-48
2022/06/25 02:41:02;;;;;;;1.35;1.05;;;20.90;63.60;;;;;;4914611;29;20400;-47
2022/06/25 02:43:35;;;;;;;1.42;1.33;;;20.90;63.40;;;;;;4909148;29;20067;-50
2022/06/25 02:46:22;;;;;;;2.20;1.27;;;20.80;63.20;;;;;;4913712;29;20095;-45
2022/06/25 02:48:54;;;;;;;1.90;1.10;;;20.80;63.10;;;;;;4909526;29;20055;-52
2022/06/25 02:51:21;;;;;;;2.78;1.30;;;20.70;62.80;;;;;;4914709;29;20072;-51
2022/06/25 02:53:49;;;;;;;1.30;1.20;;;20.60;62.60;;;;;;4910607;29;20044;-47
2022/06/25 02:59:11;;;;;;;1.08;0.98;;;20.50;63.20;;;;;;4915650;29;20052;-49
2022/06/25 03:01:42;;;;;;;1.88;1.10;;;20.40;62.30;;;;;;4909509;29;20044;-49
2022/06/25 03:04:10;;;;;;;4.25;1.23;;;20.40;62.40;;;;;;4914058;29;20059;-51
2022/06/25 03:06:37;;;;;;;3.97;1.40;;;20.30;62.50;;;;;;4914868;29;20042;-50
2022/06/25 03:09:10;;;;;;;1.65;1.00;;;20.20;63.10;;;;;;4899614;29;20044;-50
2022/06/25 03:11:38;;;;;;;3.72;1.35;;;20.10;62.40;;;;;;4898208;29;20040;-49
2022/06/25 03:14:06;;;;;;;2.35;1.45;;;20.10;62.60;;;;;;4898330;29;20044;-52
2022/06/25 03:16:35;;;;;;;2.83;1.10;;;20.00;62.50;;;;;;4914533;29;20131;-52
2022/06/25 03:19:06;;;;;;;8.15;1.58;;;20.00;62.70;;;;;;4915225;29;20044;-47
2022/06/25 03:21:45;;;;;;;3.90;1.38;;;19.90;62.80;;;;;;4911646;29;20055;-49
2022/06/25 03:24:17;;;;;;;3.63;1.52;;;19.80;63.00;;;;;;4911352;29;20089;-47
2022/06/25 03:26:45;;;;;;;1.98;1.20;;;19.80;63.10;;;;;;4914945;29;20048;-52
2022/06/25 03:29:12;;;;;;;4.40;1.27;;;19.80;63.10;;;;;;4894815;29;20536;-47
2022/06/25 03:31:39;;;;;;;4.47;1.38;;;19.70;63.10;;;;;;4921959;29;20504;-49
2022/06/25 03:34:26;;;;;;;2.63;1.35;;;19.70;63.40;;;;;;4915893;29;20066;-48
2022/06/25 03:36:56;;;;;;;1.63;1.13;;;19.70;63.40;;;;;;4915651;29;20101;-51
2022/06/25 03:39:30;;;;;;;1.85;1.00;;;19.60;63.40;;;;;;4891988;29;20040;-50
2022/06/25 03:42:01;;;;;;;3.00;1.50;;;19.60;63.60;;;;;;4899134;29;20107;-48
2022/06/25 03:44:28;;;;;;;1.45;1.10;;;19.60;63.70;;;;;;4915839;29;20056;-51
2022/06/25 03:47:04;;;;;;;3.17;1.60;;;19.60;63.90;;;;;;4914756;29;20138;-51
2022/06/25 03:49:33;;;;;;;2.03;1.60;;;19.60;64.30;;;;;;4924082;23;20408;-47
2022/06/25 03:52:03;;;;;;;2.08;1.52;;;19.60;64.80;;;;;;4909707;29;20048;-48
2022/06/25 03:54:30;;;;;;;2.72;1.73;;;19.60;65.20;;;;;;4914962;29;20044;-46
2022/06/25 03:56:59;;;;;;;2.05;1.60;;;19.60;65.70;;;;;;4898130;29;20044;-46
2022/06/25 03:59:38;;;;;;;1.70;1.60;;;19.60;65.70;;;;;;4895609;29;20060;-50
2022/06/25 04:02:16;;;;;;;1.67;1.58;;;19.60;65.90;;;;;;4922939;29;20077;-46
2022/06/25 04:05:07;;;;;;;2.13;1.83;;;19.60;65.90;;;;;;4915693;29;20740;-46
2022/06/25 04:07:38;;;;;;;2.75;2.10;;;19.70;66.00;;;;;;4916381;29;20103;-48
2022/06/25 04:10:09;;;;;;;3.80;1.90;;;19.70;66.10;;;;;;4915455;29;20511;-48
2022/06/25 04:12:36;;;;;;;1.77;1.63;;;19.70;66.30;;;;;;4905967;29;20048;-47
2022/06/25 04:15:06;;;;;;;2.10;1.92;;;19.70;66.30;;;;;;4913989;29;20044;-48
2022/06/25 04:17:33;;;;;;;2.80;2.17;;;19.80;66.40;;;;;;4907862;29;20040;-50
2022/06/25 04:20:02;;;;;;;2.15;1.95;;;19.80;66.60;;;;;;4922502;29;20044;-51
2022/06/25 04:22:31;;;;;;;2.65;1.70;;;19.90;66.70;;;;;;4913509;29;20068;-51
2022/06/25 04:25:01;;;;;;;1.52;1.48;;;19.90;66.70;;;;;;4913909;29;20052;-48
2022/06/25 04:30:13;;;;;;;2.42;1.73;;;20.00;66.90;;;;;;4903152;29;20071;-49
2022/06/25 04:32:44;;;;;;;2.15;2.00;;;20.10;67.00;;;;;;4913549;29;20059;-50
2022/06/25 04:35:21;;;;;;;2.67;1.95;;;20.10;67.10;;;;;;4912913;29;20060;-50
2022/06/25 04:37:50;;;;;;;1.83;1.73;;;20.10;67.10;;;;;;4895905;29;20540;-49
2022/06/25 04:40:19;;;;;;;2.65;1.63;;;20.10;67.20;;;;;;4908060;29;20096;-47
2022/06/25 04:42:49;;;;;;;2.70;1.73;;;20.20;67.20;;;;;;4929326;29;20044;-47
2022/06/25 04:45:19;;;;;;;4.55;1.73;;;20.30;67.30;;;;;;4903911;29;20564;-47
2022/06/25 04:48:06;;;;;;;3.70;1.60;;;20.30;67.30;;;;;;4921193;29;20516;-46
2022/06/25 04:51:04;;;;;;;1.67;1.52;;;20.40;67.10;;;;;;4913333;29;20058;-47
2022/06/25 04:53:31;;;;;;;1.70;1.58;;;20.40;67.10;;;;;;4912789;29;20048;-47
2022/06/25 04:55:58;;;;;;;1.95;1.85;;;20.50;67.00;;;;;;4899434;29;20067;-49
2022/06/25 04:58:25;;;;;;;5.00;1.77;;;20.50;66.90;;;;;;4917219;29;20096;-51
2022/06/25 05:01:10;;;;;;;4.03;2.33;;;20.60;66.90;;;;;;4920935;29;20051;-51
2022/06/25 05:03:39;;;;;;;1.60;1.50;;;20.60;66.90;;;;;;4920142;29;20440;-51
2022/06/25 05:06:13;;;;;;;5.55;1.80;;;20.70;66.80;;;;;;4905084;29;20059;-51
2022/06/25 05:08:44;;;;;;;2.65;1.60;;;20.70;66.60;;;;;;4919935;29;20048;-51
2022/06/25 05:11:11;;;;;;;2.38;1.50;;;20.70;66.50;;;;;;4919601;29;20086;-47
2022/06/25 05:13:38;;;;;;;3.42;1.67;;;20.80;66.50;;;;;;4919227;29;20469;-52
2022/06/25 05:16:09;;;;;;;3.22;1.70;;;20.90;66.40;;;;;;4919001;29;20047;-51
2022/06/25 05:18:36;;;;;;;3.60;1.65;;;20.90;66.10;;;;;;4915043;29;20032;-51
2022/06/25 05:21:03;;;;;;;2.78;1.60;;;21.00;65.90;;;;;;4905946;29;20123;-50
2022/06/25 05:23:30;;;;;;;2.70;1.80;;;21.10;66.00;;;;;;4911060;29;20047;-50
2022/06/25 05:26:00;;;;;;;1.95;1.73;;;21.10;65.90;;;;;;4890019;29;20064;-51
2022/06/25 05:28:27;;;;;;;2.88;1.50;;;21.20;65.80;;;;;;4888907;29;20056;-48
2022/06/25 05:30:55;;;;;;;2.45;1.88;;;21.30;65.70;;;;;;4908983;29;20552;-47
2022/06/25 05:33:24;;;;;;;1.55;1.40;;;21.30;65.30;;;;;;4914892;29;20044;-47
2022/06/25 05:35:55;;;;;;;2.30;1.70;;;21.40;65.30;;;;;;4918630;29;20043;-46
2022/06/25 05:38:25;;;;;;;3.63;1.67;;;21.40;64.90;;;;;;4903699;29;20515;-49
2022/06/25 05:40:57;;;;;;;5.75;1.60;;;21.60;64.80;;;;;;4905502;29;20044;-47
2022/06/25 05:43:24;;;;;;;;;;;21.60;64.40;;;;;;4916884;29;20064;-47
2022/06/25 05:45:50;;;;;;;2.10;1.50;;;21.70;64.40;;;;;;4916717;29;19983;-53
2022/06/25 05:48:17;;;;;;;4.38;1.60;;;21.80;64.10;;;;;;4918639;29;20040;-49
2022/06/25 05:50:44;;;;;;;5.22;2.67;;;21.80;63.90;;;;;;4915095;29;20048;-53
2022/06/25 05:53:11;;;;;;;3.58;1.80;;;21.80;63.60;;;;;;4916195;29;20609;-50
2022/06/25 05:55:40;;;;;;;2.38;1.50;;;21.90;63.60;;;;;;4915625;29;20040;-50
2022/06/25 05:58:07;;;;;;;2.75;1.63;;;21.90;63.30;;;;;;4916117;29;20508;-52
2022/06/25 06:00:39;;;;;;;2.47;1.40;;;21.90;63.10;;;;;;4910192;29;20556;-53
2022/06/25 06:03:05;;;;;;;3.20;1.90;;;22.00;63.10;;;;;;4914853;29;20044;-51
2022/06/25 06:05:35;;;;;;;5.95;2.28;;;22.00;63.10;;;;;;4915328;29;20468;-51
2022/06/25 06:08:02;;;;;;;3.65;1.70;;;22.00;62.80;;;;;;4907340;29;20051;-51
2022/06/25 06:10:29;;;;;;;1.80;1.38;;;22.00;62.80;;;;;;4897483;29;20051;-48
2022/06/25 06:12:56;;;;;;;1.95;1.70;;;22.10;62.70;;;;;;4924042;29;20050;-49
2022/06/25 06:15:22;;;;;;;2.83;1.27;;;22.10;62.70;;;;;;4917814;29;20054;-50
2022/06/25 06:17:49;;;;;;;5.55;1.38;;;22.10;62.70;;;;;;4927830;29;20091;-53
2022/06/25 06:20:18;;;;;;;1.42;1.30;;;22.10;63.00;;;;;;4918593;29;20044;-53
2022/06/25 06:22:45;;;;;;;2.63;1.30;;;22.20;62.00;;;;;;4916193;29;20048;-50
2022/06/25 06:25:12;;;;;;;1.42;1.33;;;22.20;61.80;;;;;;4923514;29;20051;-49
2022/06/25 06:27:38;;;;;;;2.05;1.30;;;22.30;61.50;;;;;;4914936;29;20048;-49
2022/06/25 06:30:08;;;;;;;2.75;1.30;;;22.30;61.60;;;;;;4901306;29;20507;-49
2022/06/25 06:32:35;;;;;;;1.13;1.02;;;22.30;61.30;;;;;;4914353;29;20040;-52
2022/06/25 06:35:02;;;;;;;3.22;1.05;;;22.40;61.30;;;;;;4921401;29;20083;-51
2022/06/25 06:37:31;;;;;;;2.70;1.17;;;22.40;61.50;;;;;;4923386;29;20103;-53
2022/06/25 06:39:58;;;;;;;2.10;1.90;;;22.40;60.80;;;;;;4912484;29;20523;-49
2022/06/25 06:42:25;;;;;;;4.05;1.30;;;22.50;60.70;;;;;;4915185;29;20059;-54
2022/06/25 06:44:54;;;;;;;6.18;1.40;;;22.50;60.20;;;;;;4918158;29;20048;-52
2022/06/25 06:47:20;;;;;;;3.25;1.40;;;22.60;60.40;;;;;;4912921;29;20044;-53
2022/06/25 06:49:47;;;;;;;2.85;1.08;;;22.60;60.20;;;;;;4904397;29;20626;-52
2022/06/25 06:52:14;;;;;;;1.13;1.02;;;22.60;60.10;;;;;;4922294;29;20039;-54
2022/06/25 06:54:41;;;;;;;3.58;1.00;;;22.60;60.10;;;;;;4915861;29;20095;-51
2022/06/25 06:57:09;;;;;;;4.13;1.25;;;22.60;59.80;;;;;;4916867;29;20572;-51
2022/06/25 06:59:38;;;;;;;2.42;1.35;;;22.70;59.80;;;;;;4910798;29;20044;-51
2022/06/25 07:02:07;;;;;;;2.35;1.10;;;22.80;59.60;;;;;;4911530;29;20040;-53
2022/06/25 07:04:34;;;;;;;2.33;1.20;;;22.80;59.80;;;;;;4912725;29;20182;-51
2022/06/25 07:07:01;;;;;;;3.05;1.30;;;22.80;59.60;;;;;;4907486;29;20513;-54
2022/06/25 07:09:28;;;;;;;1.13;0.90;;;22.90;59.30;;;;;;4914412;29;20055;-53
2022/06/25 07:11:56;;;;;;;2.92;1.10;;;22.90;59.40;;;;;;4910420;29;20504;-52
2022/06/25 07:14:22;;;;;;;2.33;1.55;;;23.00;59.10;;;;;;4914224;29;20063;-52
2022/06/25 07:16:51;;;;;;;4.53;1.10;;;23.10;59.10;;;;;;4903621;29;20055;-51
2022/06/25 07:19:17;;;;;;;3.03;1.05;;;23.20;58.60;;;;;;4917169;29;20048;-53
2022/06/25 07:21:46;;;;;;;1.63;0.98;;;23.30;58.60;;;;;;4913777;29;20052;-52
2022/06/25 07:24:15;;;;;;;1.02;0.80;;;23.40;58.80;;;;;;4895832;29;20075;-53
2022/06/25 07:26:42;;;;;;;1.52;0.90;;;23.60;58.50;;;;;;4906951;29;20107;-53
2022/06/25 07:29:11;;;;;;;3.13;1.00;;;23.70;58.30;;;;;;4915712;29;20089;-50
2022/06/25 07:31:40;;;;;;;1.05;0.75;;;23.80;58.20;;;;;;4918144;29;20186;-51
2022/06/25 07:34:15;;;;;;;1.48;0.80;;;24.00;57.90;;;;;;4912612;29;20056;-51
2022/06/25 07:36:44;;;;;;;0.88;0.60;;;24.20;58.00;;;;;;4922393;29;20051;-51
2022/06/25 07:39:12;;;;;;;0.82;0.70;;;24.30;57.20;;;;;;4920530;29;20067;-52
2022/06/25 07:41:38;;;;;;;3.00;0.90;;;24.50;56.80;;;;;;4899320;29;20106;-52
2022/06/25 07:44:05;;;;;;;3.92;0.88;;;24.70;56.20;;;;;;4915819;29;20104;-51
2022/06/25 07:46:35;;;;;;;1.08;0.70;;;24.80;55.50;;;;;;4919435;29;20058;-50
2022/06/25 07:49:02;;;;;;;2.53;0.77;;;24.90;55.50;;;;;;4918952;29;20052;-52
2022/06/25 07:54:18;;;;;;;3.20;0.90;;;25.10;54.20;;;;;;4919359;29;20104;-48
2022/06/25 07:56:50;;;;;;;0.90;0.70;;;25.10;54.50;;;;;;4914473;29;20435;-52
2022/06/25 07:59:17;;;;;;;2.38;0.68;;;25.20;54.00;;;;;;4914380;29;20492;-51
2022/06/25 08:01:46;;;;;;;1.92;0.70;;;25.30;54.10;;;;;;4910410;29;20052;-52
2022/06/25 08:04:13;;;;;;;1.70;0.60;;;25.40;53.40;;;;;;4912046;29;20052;-54
2022/06/25 08:06:46;;;;;;;2.28;0.60;;;25.40;53.20;;;;;;4911952;29;20096;-53
2022/06/25 08:09:27;;;;;;;;;;;;;;;;;;;;;
2022/06/25 08:11:54;;;;;;;1.23;0.50;;;25.50;52.70;;;;;;4909298;29;20047;-53
2022/06/25 08:14:25;;;;;;;2.78;0.75;;;25.50;52.40;;;;;;4913059;29;20069;-51
2022/06/25 08:16:54;;;;;;;2.15;0.80;;;25.40;52.30;;;;;;4913138;29;20040;-52
2022/06/25 08:19:24;;;;;;;1.95;0.73;;;25.50;52.90;;;;;;4918500;29;20051;-53
2022/06/25 08:21:50;;;;;;;1.77;0.75;;;25.50;52.20;;;;;;4906398;29;20112;-52
2022/06/25 08:24:17;;;;;;;1.90;0.80;;;25.50;52.50;;;;;;4914387;29;20044;-53
2022/06/25 08:26:44;;;;;;;2.00;0.85;;;25.50;52.50;;;;;;4913213;29;20063;-54
2022/06/25 08:29:14;;;;;;;1.13;0.88;;;25.50;52.40;;;;;;4930246;29;20055;-54
2022/06/25 08:31:43;;;;;;;1.10;0.77;;;25.50;52.30;;;;;;4921305;29;20051;-53
2022/06/25 08:34:09;;;;;;;3.28;0.98;;;25.60;51.70;;;;;;4907527;29;20249;-54
2022/06/25 08:36:36;;;;;;;1.95;0.95;;;25.60;52.00;;;;;;4920011;29;20092;-54
2022/06/25 08:39:03;;;;;;;2.50;1.10;;;25.70;52.60;;;;;;4912246;29;20033;-53
2022/06/25 08:41:30;;;;;;;2.42;0.95;;;25.70;52.70;;;;;;4906514;29;20060;-54
2022/06/25 08:43:59;;;;;;;1.63;1.00;;;25.80;52.30;;;;;;4905828;29;20127;-53
2022/06/25 08:46:28;;;;;;;3.70;1.45;;;25.80;51.40;;;;;;4912725;29;20107;-49
2022/06/25 08:48:56;;;;;;;2.40;1.25;;;25.90;51.20;;;;;;4914811;29;20557;-53
2022/06/25 08:51:29;;;;;;;2.00;0.88;;;26.00;51.90;;;;;;4908963;29;20083;-53
2022/06/25 08:53:57;;;;;;;1.73;1.00;;;26.00;51.40;;;;;;4913371;29;20047;-53
2022/06/25 08:56:29;;;;;;;1.70;0.90;;;26.00;51.90;;;;;;4913022;29;20054;-51
2022/06/25 08:58:59;;;;;;;2.92;1.00;;;26.10;51.60;;;;;;4909154;29;20139;-53
2022/06/25 09:01:28;;;;;;;1.48;0.93;;;26.20;51.20;;;;;;4901090;29;20432;-52
2022/06/25 09:03:55;;;;;;;2.92;1.73;;;26.20;51.40;;;;;;4914088;29;20051;-54
2022/06/25 09:06:22;;;;;;;2.28;1.08;;;26.30;51.70;;;;;;4907239;29;20056;-52
2022/06/25 09:09:07;;;;;;;2.65;1.15;;;26.30;51.30;;;;;;4907784;29;20044;-54
2022/06/25 09:11:54;;;;;;;2.05;1.20;;;26.50;50.80;;;;;;4917923;29;20486;-53
2022/06/25 09:14:22;;;;;;;2.35;1.02;;;26.50;50.40;;;;;;4911558;29;20079;-53
2022/06/25 09:17:12;;;;;;;1.95;1.05;;;26.50;50.40;;;;;;4915103;29;20040;-51
2022/06/25 09:19:47;;;;;;;3.15;1.27;;;26.60;50.00;;;;;;4912105;29;20543;-53
2022/06/25 09:22:20;;;;;;;2.60;1.38;;;26.60;50.40;;;;;;4905667;29;20042;-50
2022/06/25 09:24:54;;;;;;;2.25;1.10;;;26.60;49.80;;;;;;4911243;29;20044;-50
2022/06/25 09:27:36;;;;;;;1.20;0.90;;;26.60;50.30;;;;;;4908203;29;20103;-52
2022/06/25 09:30:17;;;;;;;3.25;1.40;;;26.60;50.10;;;;;;4915000;29;20127;-52
2022/06/25 09:32:56;;;;;;;4.43;1.42;;;26.60;49.90;;;;;;4918574;29;20480;-52
2022/06/25 09:35:37;;;;;;;2.17;1.00;;;26.70;50.00;;;;;;4897239;29;20053;-51
2022/06/25 09:38:16;;;;;;;3.35;1.23;;;26.70;50.40;;;;;;4914764;29;20076;-50
2022/06/25 09:40:57;;;;;;;1.77;1.10;;;26.70;50.30;;;;;;4904668;29;20048;-53
2022/06/25 09:43:37;;;;;;;3.30;1.00;;;26.70;49.80;;;;;;4925649;29;20091;-54
2022/06/25 09:46:06;;;;;;;1.38;0.80;;;26.80;50.10;;;;;;4921750;29;20056;-52
2022/06/25 09:48:38;;;;;;;;;;;26.90;50.00;;;;;;4921078;29;20082;-50
2022/06/25 09:51:23;;;;;;;4.47;1.30;;;27.00;50.90;;;;;;4921346;29;19946;-54
2022/06/25 09:53:55;;;;;;;1.15;1.00;;;27.10;50.10;;;;;;4916489;29;20048;-49
2022/06/25 09:56:25;;;;;;;3.60;1.48;;;27.20;49.90;;;;;;4923337;29;20056;-52
2022/06/25 09:58:53;;;;;;;1.70;1.10;;;27.30;49.40;;;;;;4920755;29;20101;-52
2022/06/25 10:01:26;;;;;;;2.20;1.63;;;27.40;49.20;;;;;;4919101;29;20800;-51
2022/06/25 10:03:57;;;;;;;2.15;1.20;;;27.40;49.00;;;;;;4915991;29;20044;-51
2022/06/25 10:06:36;;;;;;;1.65;0.77;;;27.40;48.30;;;;;;4911061;29;20051;-52
2022/06/25 10:09:07;;;;;;;1.38;1.10;;;27.50;48.30;;;;;;4916642;29;20048;-52
2022/06/25 10:11:34;;;;;;;2.63;1.13;;;27.50;49.30;;;;;;4912856;29;20058;-52
2022/06/25 10:14:02;;;;;;;3.15;1.13;;;27.60;48.30;;;;;;4907774;29;20511;-53
2022/06/25 10:16:29;;;;;;;2.80;1.30;;;27.60;48.50;;;;;;4914986;29;20445;-51
2022/06/25 10:19:05;;;;;;;3.67;1.08;;;27.60;47.90;;;;;;4907169;29;20080;-53
2022/06/25 10:21:34;;;;;;;1.88;0.95;;;27.60;47.40;;;;;;4893947;29;20036;-50
2022/06/25 10:24:05;;;;;;;4.75;1.13;;;27.50;47.80;;;;;;4912488;29;20492;-54
2022/06/25 10:26:33;;;;;;;2.13;1.20;;;27.50;47.50;;;;;;4915877;29;20055;-52
2022/06/25 10:29:29;;;;;;;5.38;1.55;;;27.40;47.70;;;;;;4911720;29;20415;-52
2022/06/25 10:32:18;;;;;;;2.83;1.00;;;27.40;47.30;;;;;;4909124;29;20052;-53
2022/06/25 10:34:56;;;;;;;2.97;1.23;;;27.30;47.30;;;;;;4908561;29;20456;-52
2022/06/25 10:37:23;;;;;;;4.03;2.03;;;27.20;47.40;;;;;;4910991;29;20625;-52
2022/06/25 10:39:54;;;;;;;2.22;1.13;;;27.20;48.30;;;;;;4914049;29;20040;-53
2022/06/25 10:45:20;;;;;;;1.75;1.10;;;27.20;48.10;;;;;;4912574;29;20044;-51
2022/06/25 10:47:48;;;;;;;1.92;0.75;;;27.30;48.00;;;;;;4910337;29;20380;-51
2022/06/25 10:50:23;;;;;;;2.70;0.95;;;27.30;48.20;;;;;;4910838;29;20051;-51
2022/06/25 10:53:06;;;;;;;1.95;1.02;;;27.40;48.50;;;;;;4911121;29;20252;-52
2022/06/25 10:55:51;;;;;;;1.33;1.05;;;27.50;47.80;;;;;;4916951;29;20527;-50
2022/06/25 10:58:26;;;;;;;2.50;1.20;;;27.50;47.80;;;;;;4907968;29;20504;-50
2022/06/25 11:01:01;;;;;;;1.35;0.95;;;27.60;48.20;;;;;;4916381;29;20036;-51
2022/06/25 11:03:32;;;;;;;1.20;0.70;;;27.70;48.80;;;;;;4913406;29;20115;-52
2022/06/25 11:06:34;;;;;;;1.23;0.68;;;27.90;48.60;;;;;;4914764;29;20064;-53
2022/06/25 11:09:20;;;;;;;2.97;0.80;;;28.10;48.10;;;;;;4910733;29;20044;-53
2022/06/25 11:11:47;;;;;;;3.15;1.00;;;28.30;48.20;;;;;;4918350;29;20040;-49
2022/06/25 11:14:21;;;;;;;1.90;0.70;;;28.50;47.30;;;;;;4912608;29;20099;-50
2022/06/25 11:16:52;;;;;;;2.30;1.02;;;28.70;46.60;;;;;;4913598;29;20546;-51
2022/06/25 11:19:20;;;;;;;2.10;1.08;;;28.90;47.00;;;;;;4913504;29;20039;-52
2022/06/25 11:21:48;;;;;;;1.60;0.70;;;29.10;46.20;;;;;;4922012;29;20484;-53
2022/06/25 11:24:23;;;;;;;1.90;1.23;;;29.20;46.30;;;;;;4925377;29;20555;-50
2022/06/25 11:29:58;;;;;;;2.97;1.25;;;29.40;44.90;;;;;;4911907;29;20413;-52
2022/06/25 11:32:28;;;;;;;4.18;0.90;;;29.40;45.20;;;;;;4910324;29;20052;-52
2022/06/25 11:34:58;;;;;;;;;;;29.50;44.60;;;;;;4914986;29;20563;-54
2022/06/25 11:37:26;;;;;;;1.42;0.93;;;29.60;46.00;;;;;;4907827;29;19934;-51
2022/06/25 11:39:55;;;;;;;2.40;0.90;;;29.60;44.80;;;;;;4911791;29;20419;-52
2022/06/25 11:42:22;;;;;;;1.15;1.05;;;29.70;45.50;;;;;;4908311;29;20674;-50
2022/06/25 11:44:56;;;;;;;2.42;1.13;;;29.80;45.20;;;;;;4915240;29;20048;-49
2022/06/25 11:47:29;;;;;;;1.33;0.80;;;29.80;44.40;;;;;;4909993;29;20131;-53
2022/06/25 11:49:58;;;;;;;2.10;0.80;;;29.90;45.30;;;;;;4905854;29;20119;-53
2022/06/25 11:52:28;;;;;;;4.25;1.13;;;30.00;44.50;;;;;;4909654;29;20052;-50
2022/06/25 11:54:54;;;;;;;1.25;0.90;;;30.00;44.20;;;;;;4924174;29;20044;-54
2022/06/25 11:57:25;;;;;;;1.83;0.85;;;30.00;43.70;;;;;;4912386;29;20136;-50
2022/06/25 11:59:53;;;;;;;3.25;1.15;;;30.00;44.10;;;;;;4920598;29;20048;-51
2022/06/25 12:02:24;;;;;;;2.75;0.68;;;30.00;44.10;;;;;;4918591;29;20044;-50
2022/06/25 12:05:02;;;;;;;2.95;0.75;;;30.00;44.60;;;;;;4921891;29;20044;-52
2022/06/25 12:07:31;;;;;;;1.95;0.80;;;30.00;44.40;;;;;;4906457;29;20057;-51
2022/06/25 12:10:02;;;;;;;2.00;0.70;;;30.00;44.00;;;;;;4908282;29;20047;-53
2022/06/25 12:12:29;;;;;;;3.15;0.70;;;30.00;44.50;;;;;;4919103;29;20052;-52
2022/06/25 12:15:01;;;;;;;1.15;0.93;;;30.00;44.20;;;;;;4907712;29;20044;-54
2022/06/25 12:17:32;;;;;;;;;;;30.00;44.00;;;;;;4912353;29;20567;-52
2022/06/25 12:20:13;;;;;;;1.03;0.60;;;30.10;45.10;;;;;;4921842;29;19958;-52
2022/06/25 12:22:52;;;;;;;3.65;0.90;;;30.10;44.10;;;;;;4903851;29;20288;-51
2022/06/25 12:25:28;;;;;;;5.25;0.90;;;30.10;44.40;;;;;;4919815;29;20099;-50
2022/06/25 12:28:00;;;;;;;4.97;1.30;;;30.10;44.10;;;;;;4917216;29;20071;-49
2022/06/25 12:30:32;;;;;;;2.70;0.70;;;30.10;43.80;;;;;;4911583;29;20536;-52
2022/06/25 12:33:13;;;;;;;1.00;0.88;;;30.10;43.40;;;;;;4911106;29;20048;-52
2022/06/25 12:35:44;;;;;;;2.05;0.90;;;30.20;43.10;;;;;;4907605;29;20396;-52
2022/06/25 12:38:12;;;;;;;1.92;1.25;;;30.20;44.20;;;;;;4896225;29;20041;-50
2022/06/25 12:40:49;;;;;;;1.45;0.95;;;30.30;44.20;;;;;;4915948;29;20646;-54
2022/06/25 12:43:20;;;;;;;2.33;1.00;;;30.40;43.60;;;;;;4911176;29;20052;-54
2022/06/25 12:45:54;;;;;;;3.17;1.17;;;30.60;43.70;;;;;;4908727;29;20056;-52
2022/06/25 12:48:31;;;;;;;1.20;0.98;;;30.70;43.60;;;;;;4908988;29;20115;-50
2022/06/25 12:51:15;;;;;;;5.45;0.75;;;31.10;42.70;;;;;;4911849;29;20079;-54
2022/06/25 12:53:48;;;;;;;1.65;0.95;;;31.20;42.00;;;;;;4913868;29;20051;-50
2022/06/25 12:56:15;;;;;;;1.40;0.98;;;31.40;41.80;;;;;;4915418;29;20480;-50
2022/06/25 12:58:43;;;;;;;3.33;0.93;;;31.60;42.00;;;;;;4913738;29;20563;-52
2022/06/25 13:01:27;;;;;;;1.23;1.00;;;31.70;42.20;;;;;;4909535;29;20052;-52
2022/06/25 13:03:55;;;;;;;1.88;0.90;;;31.80;42.10;;;;;;4912854;29;20042;-51
2022/06/25 13:06:25;;;;;;;1.40;0.60;;;31.90;41.70;;;;;;4917979;29;20075;-53
2022/06/25 13:08:52;;;;;;;1.73;1.10;;;32.00;41.10;;;;;;4912541;29;20139;-52
2022/06/25 13:11:23;;;;;;;1.52;1.00;;;32.10;41.30;;;;;;4915055;29;20112;-52
2022/06/25 13:13:51;;;;;;;1.38;1.00;;;32.10;41.40;;;;;;4912349;29;20047;-52
2022/06/25 13:16:19;;;;;;;2.03;1.02;;;32.20;41.20;;;;;;4916486;29;20762;-53
2022/06/25 13:18:49;;;;;;;1.02;0.60;;;32.20;41.10;;;;;;4913041;29;20040;-51
2022/06/25 13:21:19;;;;;;;1.80;1.15;;;32.20;41.10;;;;;;4914095;29;20044;-52
2022/06/25 13:23:48;;;;;;;2.22;0.93;;;32.30;41.40;;;;;;4913782;29;20044;-52